Time;durP1;ratioP1;P1;durP2;ratioP2;P2;SDS_P1;SDS_P2;PMS_P1;PMS_P2;Temp;Humidity;BMP_temperature;BMP_pressure;BME280_temperature;BME280_humidity;BME280_pressure;Samples;Min_cycle;Max_cycle;Signal;HPM_P1;HPM_P2
2022/08/27 00:00:14;;;;;;;7.80;3.50;;;16.40;99.90;;;;;;5029994;28;20048;-61
2022/08/27 00:02:41;;;;;;;5.57;3.00;;;16.30;99.90;;;;;;5038063;28;20647;-61
2022/08/27 00:05:08;;;;;;;6.90;3.53;;;16.30;99.90;;;;;;5049777;28;20326;-61
2022/08/27 00:07:34;;;;;;;6.10;3.42;;;16.30;99.90;;;;;;5055810;28;20029;-61
2022/08/27 00:09:59;;;;;;;4.90;3.35;;;16.20;99.90;;;;;;5056155;28;20072;-61
2022/08/27 00:12:25;;;;;;;6.72;3.00;;;16.20;99.90;;;;;;5056488;28;20195;-61
2022/08/27 00:14:52;;;;;;;6.00;3.50;;;16.30;99.90;;;;;;5030925;28;20487;-61
2022/08/27 00:17:17;;;;;;;6.32;2.97;;;16.30;99.90;;;;;;5039730;28;20053;-61
2022/08/27 00:19:43;;;;;;;7.47;3.33;;;16.20;99.90;;;;;;5034754;28;20515;-61
2022/08/27 00:22:11;;;;;;;5.80;3.10;;;16.30;99.90;;;;;;5047592;28;20058;-61
2022/08/27 00:24:37;;;;;;;7.38;2.85;;;16.20;99.90;;;;;;5058366;28;20469;-61
2022/08/27 00:27:03;;;;;;;7.20;3.30;;;16.20;99.90;;;;;;5043812;28;20049;-61
2022/08/27 00:29:29;;;;;;;5.95;3.55;;;16.20;99.90;;;;;;5058352;28;20041;-61
2022/08/27 00:31:55;;;;;;;4.75;3.00;;;16.30;99.90;;;;;;5055731;28;20044;-61
2022/08/27 00:34:22;;;;;;;7.93;3.63;;;16.30;99.90;;;;;;5059136;28;20089;-61
2022/08/27 00:36:47;;;;;;;6.80;4.10;;;16.30;99.90;;;;;;5058345;28;20044;-61
2022/08/27 00:39:14;;;;;;;11.13;4.03;;;16.30;99.90;;;;;;5035258;28;20491;-61
2022/08/27 00:41:44;;;;;;;7.80;4.50;;;16.20;99.90;;;;;;5057945;28;20032;-61
2022/08/27 00:44:11;;;;;;;6.75;3.85;;;16.20;99.90;;;;;;5059059;28;20534;-61
2022/08/27 00:46:46;;;;;;;8.00;4.43;;;16.20;99.90;;;;;;5037156;28;20123;-61
2022/08/27 00:49:20;;;;;;;6.70;4.05;;;16.20;99.90;;;;;;5039763;28;20136;-61
2022/08/27 00:52:07;;;;;;;8.35;4.30;;;16.10;99.90;;;;;;5059130;28;20429;-61
2022/08/27 00:54:33;;;;;;;8.13;4.85;;;16.00;99.90;;;;;;5052872;28;20040;-61
2022/08/27 00:57:00;;;;;;;7.90;4.15;;;15.90;99.90;;;;;;5048686;28;20044;-61
2022/08/27 00:59:29;;;;;;;8.23;3.45;;;16.00;99.90;;;;;;5062607;28;20160;-61
2022/08/27 01:04:43;;;;;;;9.93;4.72;;;16.00;99.90;;;;;;5064129;28;20064;-61
2022/08/27 01:07:10;;;;;;;8.13;4.28;;;15.90;99.90;;;;;;5051004;28;20441;-61
2022/08/27 01:09:36;;;;;;;6.57;3.53;;;15.90;99.90;;;;;;5053356;28;20067;-61
2022/08/27 01:12:03;;;;;;;6.80;4.03;;;15.80;99.90;;;;;;5053420;28;20388;-61
2022/08/27 01:14:29;;;;;;;6.78;4.18;;;15.90;99.90;;;;;;5039993;28;20558;-61
2022/08/27 01:16:57;;;;;;;7.72;3.92;;;15.80;99.90;;;;;;5038510;28;20502;-61
2022/08/27 01:19:23;;;;;;;6.43;3.75;;;15.80;99.90;;;;;;5054573;28;20048;-61
2022/08/27 01:21:57;;;;;;;6.07;4.25;;;15.80;99.90;;;;;;5053505;28;20041;-61
2022/08/27 01:24:45;;;;;;;;;;;15.70;99.90;;;;;;5039982;28;21943;-61
2022/08/27 01:27:15;;;;;;;6.70;4.05;;;15.60;99.90;;;;;;5034682;28;19917;-61
2022/08/27 01:29:41;;;;;;;8.25;4.18;;;15.50;99.90;;;;;;5052998;28;20044;-61
2022/08/27 01:32:14;;;;;;;5.70;3.75;;;15.50;99.90;;;;;;5036878;28;20395;-61
2022/08/27 01:34:40;;;;;;;6.15;4.32;;;15.50;99.90;;;;;;5051690;28;20068;-61
2022/08/27 01:37:07;;;;;;;6.15;3.30;;;15.50;99.90;;;;;;5029703;28;20055;-61
2022/08/27 01:39:34;;;;;;;8.95;4.75;;;15.40;99.90;;;;;;5043318;28;20056;-61
2022/08/27 01:42:07;;;;;;;5.40;3.38;;;15.40;99.90;;;;;;5065296;28;20419;-61
2022/08/27 01:44:49;;;;;;;7.55;3.92;;;15.30;99.90;;;;;;5044450;28;20048;-61
2022/08/27 01:47:16;;;;;;;11.32;3.95;;;15.30;99.90;;;;;;5055322;28;20111;-61
2022/08/27 01:49:42;;;;;;;6.97;3.55;;;15.20;99.90;;;;;;5031068;28;20152;-61
2022/08/27 01:52:09;;;;;;;8.75;5.07;;;15.20;99.90;;;;;;5036444;28;20127;-61
2022/08/27 01:54:35;;;;;;;6.75;3.92;;;15.20;99.90;;;;;;5046924;28;20033;-61
2022/08/27 01:57:00;;;;;;;6.20;4.45;;;15.20;99.90;;;;;;5052571;28;20045;-61
2022/08/27 01:59:26;;;;;;;7.47;4.53;;;15.20;99.90;;;;;;5029833;28;20053;-61
2022/08/27 02:01:53;;;;;;;6.07;4.00;;;15.10;99.90;;;;;;5025280;28;20036;-61
2022/08/27 02:04:19;;;;;;;4.90;3.28;;;15.10;99.90;;;;;;5048070;28;20048;-61
2022/08/27 02:06:45;;;;;;;9.45;3.88;;;15.10;99.90;;;;;;5033471;28;20040;-61
2022/08/27 02:09:11;;;;;;;8.80;3.75;;;15.20;99.90;;;;;;5049353;28;20040;-61
2022/08/27 02:11:37;;;;;;;8.02;5.10;;;15.20;99.90;;;;;;5044693;28;20917;-61
2022/08/27 02:14:04;;;;;;;7.70;4.47;;;15.20;99.90;;;;;;5034646;28;20131;-61
2022/08/27 02:16:31;;;;;;;8.38;4.10;;;15.20;99.90;;;;;;5057788;28;20039;-61
2022/08/27 02:18:57;;;;;;;7.60;4.60;;;15.10;99.90;;;;;;5084611;22;20110;-54
2022/08/27 02:21:24;;;;;;;8.20;4.45;;;15.10;99.90;;;;;;5046338;28;20433;-55
2022/08/27 02:23:50;;;;;;;4.80;3.00;;;15.00;99.90;;;;;;5056386;28;20674;-56
2022/08/27 02:26:16;;;;;;;6.80;3.67;;;15.10;99.90;;;;;;5039563;28;20184;-56
2022/08/27 02:28:42;;;;;;;5.03;3.45;;;15.10;99.90;;;;;;5054149;28;20157;-56
2022/08/27 02:31:09;;;;;;;7.40;4.57;;;15.00;99.90;;;;;;5059732;28;20082;-53
2022/08/27 02:33:38;;;;;;;8.43;4.38;;;15.00;99.90;;;;;;5045794;28;20159;-51
2022/08/27 02:36:04;;;;;;;4.82;3.90;;;15.00;99.90;;;;;;5059332;28;20043;-53
2022/08/27 02:38:29;;;;;;;4.95;3.63;;;15.10;99.90;;;;;;5057514;28;20040;-56
2022/08/27 02:40:55;;;;;;;3.97;3.28;;;15.10;99.90;;;;;;5062247;28;20051;-54
2022/08/27 02:43:21;;;;;;;7.53;3.63;;;15.10;99.90;;;;;;5055774;28;20072;-52
2022/08/27 02:45:47;;;;;;;6.53;4.22;;;15.10;99.90;;;;;;5075799;28;20036;-53
2022/08/27 02:48:13;;;;;;;7.13;4.68;;;15.20;99.90;;;;;;5071442;28;20044;-55
2022/08/27 02:50:39;;;;;;;5.75;4.07;;;15.20;99.90;;;;;;5060766;28;20051;-50
2022/08/27 02:53:05;;;;;;;7.13;4.55;;;15.20;99.90;;;;;;5051643;28;20082;-56
2022/08/27 02:55:31;;;;;;;6.20;4.40;;;15.20;99.90;;;;;;5056500;28;20044;-52
2022/08/27 02:57:58;;;;;;;7.93;4.57;;;15.20;99.90;;;;;;5055076;28;20126;-52
2022/08/27 03:00:24;;;;;;;6.20;3.88;;;15.20;99.90;;;;;;5042403;28;20039;-53
2022/08/27 03:02:51;;;;;;;7.40;4.30;;;15.20;99.90;;;;;;5043397;28;20039;-56
2022/08/27 03:05:18;;;;;;;6.25;3.65;;;15.30;99.90;;;;;;5057141;28;20047;-53
2022/08/27 03:07:44;;;;;;;8.88;4.03;;;15.30;99.90;;;;;;5077780;28;20107;-57
2022/08/27 03:10:12;;;;;;;5.82;4.13;;;15.40;99.90;;;;;;5061134;28;20047;-52
2022/08/27 03:12:39;;;;;;;6.40;4.53;;;15.40;99.90;;;;;;5069863;28;20082;-57
2022/08/27 03:15:07;;;;;;;5.45;3.20;;;15.40;99.90;;;;;;5074619;28;20416;-54
2022/08/27 03:20:17;;;;;;;6.85;2.88;;;15.40;99.90;;;;;;5056082;28;20115;-57
2022/08/27 03:22:44;;;;;;;5.65;3.80;;;15.40;99.90;;;;;;5062300;28;20124;-53
2022/08/27 03:25:10;;;;;;;6.45;3.33;;;15.50;99.90;;;;;;5056861;28;20493;-53
2022/08/27 03:27:37;;;;;;;10.32;4.20;;;15.50;99.90;;;;;;5047644;28;20044;-56
2022/08/27 03:30:06;;;;;;;9.07;3.60;;;15.50;99.90;;;;;;5077660;28;20502;-53
2022/08/27 03:32:32;;;;;;;7.30;3.08;;;15.50;99.90;;;;;;5060851;28;21131;-55
2022/08/27 03:34:58;;;;;;;7.05;3.03;;;15.50;99.90;;;;;;5036662;28;20483;-57
2022/08/27 03:37:25;;;;;;;6.65;3.17;;;15.50;99.90;;;;;;5058927;28;20123;-56
2022/08/27 03:39:50;;;;;;;7.72;2.83;;;15.60;99.90;;;;;;5055354;28;20402;-51
2022/08/27 03:42:16;;;;;;;6.82;2.97;;;15.60;99.90;;;;;;5063483;28;20044;-51
2022/08/27 03:44:42;;;;;;;5.38;2.80;;;15.60;99.90;;;;;;5043479;28;20459;-56
2022/08/27 03:47:08;;;;;;;6.72;3.20;;;15.60;99.90;;;;;;5036000;28;20115;-54
2022/08/27 03:49:34;;;;;;;6.00;3.67;;;15.70;99.90;;;;;;5067893;28;20036;-54
2022/08/27 03:52:00;;;;;;;6.35;2.70;;;15.70;99.90;;;;;;5059216;28;20055;-52
2022/08/27 03:54:26;;;;;;;7.15;2.58;;;15.70;99.90;;;;;;5043975;28;20094;-55
2022/08/27 03:56:51;;;;;;;4.55;2.60;;;15.70;99.90;;;;;;5058172;28;20064;-51
2022/08/27 03:59:17;;;;;;;4.90;2.40;;;15.70;99.90;;;;;;5056536;28;20635;-53
2022/08/27 04:01:44;;;;;;;5.95;2.55;;;15.70;99.90;;;;;;5074795;28;20074;-55
2022/08/27 04:04:11;;;;;;;5.95;2.10;;;15.70;99.90;;;;;;5053489;28;20043;-56
2022/08/27 04:06:37;;;;;;;6.43;2.75;;;15.70;99.90;;;;;;5072454;28;21283;-58
2022/08/27 04:09:04;;;;;;;6.05;1.98;;;15.70;99.90;;;;;;5056509;28;20513;-54
2022/08/27 04:11:32;;;;;;;3.22;1.90;;;15.70;99.90;;;;;;5068772;28;20482;-56
2022/08/27 04:13:58;;;;;;;5.07;2.10;;;15.70;99.90;;;;;;5035248;28;20305;-58
2022/08/27 04:16:25;;;;;;;5.30;1.90;;;15.70;99.90;;;;;;5043089;28;20071;-57
2022/08/27 04:18:54;;;;;;;6.20;1.73;;;15.70;99.90;;;;;;5054807;28;20059;-53
2022/08/27 04:21:21;;;;;;;3.60;2.00;;;15.70;99.90;;;;;;5059371;28;20569;-56
2022/08/27 04:23:47;;;;;;;4.90;2.00;;;15.70;99.90;;;;;;5036057;28;20050;-55
2022/08/27 04:26:14;;;;;;;3.47;1.65;;;15.80;99.90;;;;;;5051613;28;20156;-51
2022/08/27 04:28:40;;;;;;;5.43;2.10;;;15.80;99.90;;;;;;5041732;28;20044;-54
2022/08/27 04:31:06;;;;;;;3.70;1.80;;;15.80;99.90;;;;;;5058334;28;20050;-50
2022/08/27 04:33:33;;;;;;;4.43;1.70;;;15.90;99.90;;;;;;5074980;28;20051;-56
2022/08/27 04:36:02;;;;;;;8.02;2.55;;;15.90;99.90;;;;;;5057906;28;20036;-54
2022/08/27 04:38:28;;;;;;;5.78;2.08;;;15.90;99.90;;;;;;5057230;28;20040;-56
2022/08/27 04:43:38;;;;;;;4.28;1.95;;;16.00;99.90;;;;;;5056321;28;20783;-53
2022/08/27 04:46:04;;;;;;;5.88;2.22;;;16.00;99.90;;;;;;5038800;28;20047;-53
2022/08/27 04:48:30;;;;;;;5.97;2.28;;;16.00;99.90;;;;;;5042590;28;20047;-57
2022/08/27 04:50:56;;;;;;;7.05;2.25;;;16.10;99.90;;;;;;5074607;28;20446;-55
2022/08/27 04:53:22;;;;;;;7.15;2.35;;;16.10;99.90;;;;;;5075114;28;20570;-56
2022/08/27 04:55:50;;;;;;;7.35;2.03;;;16.10;99.90;;;;;;5061282;28;20494;-54
2022/08/27 04:58:19;;;;;;;4.60;1.55;;;16.10;99.90;;;;;;5046790;28;20043;-56
2022/08/27 05:00:54;;;;;;;4.80;2.25;;;16.10;99.90;;;;;;5063967;28;20040;-55
2022/08/27 05:03:22;;;;;;;6.78;2.22;;;16.20;99.90;;;;;;5060892;28;20071;-54
2022/08/27 05:05:49;;;;;;;8.02;2.30;;;15.90;99.90;;;;;;5064067;28;20040;-56
2022/08/27 05:08:16;;;;;;;5.78;2.05;;;16.10;99.90;;;;;;5062691;28;20105;-56
2022/08/27 05:10:49;;;;;;;7.35;2.45;;;16.10;99.90;;;;;;5048301;28;20044;-53
2022/08/27 05:13:20;;;;;;;5.55;2.28;;;16.10;99.90;;;;;;5079205;28;20032;-57
2022/08/27 05:15:46;;;;;;;7.55;2.67;;;16.20;99.90;;;;;;5076496;28;20101;-56
2022/08/27 05:18:12;;;;;;;5.80;2.05;;;16.20;99.90;;;;;;5047035;28;20036;-58
2022/08/27 05:20:44;;;;;;;5.25;2.33;;;16.20;99.90;;;;;;5056686;28;20074;-56
2022/08/27 05:23:11;;;;;;;5.75;2.45;;;16.20;99.90;;;;;;5056952;28;20084;-56
2022/08/27 05:25:42;;;;;;;5.22;2.38;;;16.30;99.90;;;;;;5064070;28;20044;-54
2022/08/27 05:28:09;;;;;;;5.22;2.25;;;16.30;99.90;;;;;;5075115;28;20506;-56
2022/08/27 05:30:40;;;;;;;5.15;2.53;;;16.30;99.90;;;;;;5072080;28;20458;-52
2022/08/27 05:33:09;;;;;;;5.40;2.08;;;16.30;99.90;;;;;;5055161;28;20558;-50
2022/08/27 05:35:54;;;;;;;6.38;2.30;;;16.40;99.90;;;;;;5055062;28;20048;-53
2022/08/27 05:38:27;;;;;;;7.68;2.35;;;16.40;99.90;;;;;;5053589;28;20102;-52
2022/08/27 05:41:11;;;;;;;7.03;2.25;;;16.50;99.90;;;;;;5073607;28;20040;-56
2022/08/27 05:43:39;;;;;;;;;;;16.50;99.90;;;;;;5036984;28;20052;-55
2022/08/27 05:46:07;;;;;;;5.40;1.75;;;16.50;99.90;;;;;;5073650;28;20375;-50
2022/08/27 05:48:34;;;;;;;5.47;2.03;;;16.50;99.90;;;;;;5054865;28;20425;-53
2022/08/27 05:51:31;;;;;;;5.72;1.85;;;16.60;99.90;;;;;;5072591;28;20047;-51
2022/08/27 05:54:00;;;;;;;7.97;2.03;;;16.60;99.90;;;;;;5035229;28;20424;-53
2022/08/27 05:56:28;;;;;;;8.00;2.60;;;16.70;99.90;;;;;;5082411;28;20048;-51
2022/08/27 06:01:43;;;;;;;6.18;2.10;;;16.70;99.90;;;;;;5070086;28;20172;-53
2022/08/27 06:04:10;;;;;;;10.20;2.40;;;16.80;99.90;;;;;;5073787;28;20032;-55
2022/08/27 06:06:39;;;;;;;4.43;1.73;;;16.80;99.90;;;;;;5070683;28;20151;-56
2022/08/27 06:09:07;;;;;;;7.65;2.13;;;16.90;99.90;;;;;;5040277;28;20079;-56
2022/08/27 06:11:33;;;;;;;8.80;2.40;;;16.90;99.90;;;;;;5039229;28;20080;-56
2022/08/27 06:13:58;;;;;;;5.40;2.22;;;16.90;99.90;;;;;;5076694;28;20317;-56
2022/08/27 06:16:24;;;;;;;11.32;2.90;;;17.00;99.90;;;;;;5054071;28;20051;-53
2022/08/27 06:18:50;;;;;;;7.50;2.28;;;17.00;99.90;;;;;;5040160;28;20170;-50
2022/08/27 06:21:18;;;;;;;6.03;2.40;;;17.00;99.90;;;;;;5055573;28;20458;-57
2022/08/27 06:23:45;;;;;;;4.03;1.70;;;17.00;99.90;;;;;;5075930;28;20529;-52
2022/08/27 06:26:13;;;;;;;5.07;1.92;;;17.10;99.90;;;;;;5060130;28;20494;-50
2022/08/27 06:28:43;;;;;;;6.97;2.35;;;17.10;99.90;;;;;;5059935;28;20035;-56
2022/08/27 06:31:15;;;;;;;6.80;2.28;;;17.10;99.90;;;;;;5051836;28;20050;-54
2022/08/27 06:33:42;;;;;;;4.70;1.92;;;17.20;99.90;;;;;;5071375;28;20036;-54
2022/08/27 06:36:11;;;;;;;6.18;2.63;;;17.20;99.90;;;;;;5076363;28;20028;-55
2022/08/27 06:38:37;;;;;;;3.92;1.55;;;17.20;99.90;;;;;;5074350;28;20040;-53
2022/08/27 06:41:07;;;;;;;6.85;2.60;;;17.30;99.90;;;;;;5057059;28;20415;-52
2022/08/27 06:43:38;;;;;;;7.15;2.05;;;17.30;99.90;;;;;;5058042;28;20047;-51
2022/08/27 06:46:06;;;;;;;5.20;1.92;;;17.40;99.90;;;;;;5077210;28;20542;-52
2022/08/27 06:48:32;;;;;;;6.38;1.88;;;17.40;99.90;;;;;;5056972;28;20036;-53
2022/08/27 06:50:59;;;;;;;8.35;2.20;;;17.40;99.90;;;;;;5060462;28;20046;-52
2022/08/27 06:53:25;;;;;;;6.10;2.20;;;17.50;99.90;;;;;;5077343;28;20044;-55
2022/08/27 06:55:51;;;;;;;6.57;1.95;;;17.50;99.90;;;;;;5065986;28;20040;-53
2022/08/27 06:58:18;;;;;;;5.88;1.75;;;17.50;99.90;;;;;;5063442;28;20085;-56
2022/08/27 07:00:44;;;;;;;4.85;1.80;;;17.60;99.90;;;;;;5064444;28;20036;-55
2022/08/27 07:03:11;;;;;;;7.35;2.20;;;17.60;99.90;;;;;;5077608;28;20216;-54
2022/08/27 07:05:38;;;;;;;6.55;1.98;;;17.60;99.90;;;;;;5060093;28;20669;-52
2022/08/27 07:08:05;;;;;;;9.73;2.15;;;17.70;99.90;;;;;;5065892;28;20407;-55
2022/08/27 07:10:32;;;;;;;5.90;1.60;;;17.70;99.90;;;;;;5047808;28;20093;-51
2022/08/27 07:12:58;;;;;;;7.10;1.85;;;17.70;99.90;;;;;;5063514;28;20032;-52
2022/08/27 07:15:24;;;;;;;7.63;2.03;;;17.70;99.90;;;;;;5082321;28;20060;-52
2022/08/27 07:17:50;;;;;;;7.68;1.85;;;17.80;99.90;;;;;;5063014;28;20438;-55
2022/08/27 07:20:17;;;;;;;6.35;2.17;;;17.80;99.90;;;;;;5040161;28;20040;-52
2022/08/27 07:22:44;;;;;;;7.82;1.75;;;17.90;99.90;;;;;;5060784;28;20040;-56
2022/08/27 07:25:14;;;;;;;6.85;1.52;;;18.00;99.90;;;;;;5043403;28;20044;-56
2022/08/27 07:27:40;;;;;;;6.45;1.60;;;18.10;99.90;;;;;;5077864;28;20036;-54
2022/08/27 07:30:11;;;;;;;4.47;1.70;;;18.20;99.90;;;;;;5054003;28;20135;-54
2022/08/27 07:32:37;;;;;;;6.25;1.95;;;18.30;99.90;;;;;;5060960;28;20046;-55
2022/08/27 07:35:08;;;;;;;5.30;1.50;;;18.30;99.90;;;;;;5064376;28;20051;-54
2022/08/27 07:37:35;;;;;;;5.05;1.48;;;18.40;99.90;;;;;;5064916;28;20039;-58
2022/08/27 07:40:07;;;;;;;5.35;1.52;;;18.40;99.90;;;;;;5077150;28;20040;-56
2022/08/27 07:45:17;;;;;;;5.70;1.90;;;18.40;99.90;;;;;;5070627;28;20040;-53
2022/08/27 07:47:43;;;;;;;6.38;1.67;;;18.40;99.90;;;;;;5056316;28;20079;-54
2022/08/27 07:50:09;;;;;;;9.15;2.25;;;18.40;99.90;;;;;;5062187;28;20524;-53
2022/08/27 07:52:35;;;;;;;9.68;2.50;;;18.40;99.90;;;;;;5047648;28;20144;-55
2022/08/27 07:55:01;;;;;;;6.82;1.40;;;18.40;99.90;;;;;;5049512;28;20134;-53
2022/08/27 07:57:27;;;;;;;6.00;1.48;;;18.40;99.90;;;;;;5039874;28;20040;-54
2022/08/27 07:59:53;;;;;;;4.75;1.48;;;18.40;99.90;;;;;;5021252;28;20032;-56
2022/08/27 08:02:18;;;;;;;5.95;1.55;;;18.40;99.90;;;;;;5050825;28;20090;-52
2022/08/27 08:04:45;;;;;;;9.35;1.95;;;18.40;99.90;;;;;;5040099;28;20549;-51
2022/08/27 08:07:11;;;;;;;8.93;1.90;;;18.40;99.90;;;;;;5066228;28;20044;-54
2022/08/27 08:09:37;;;;;;;6.45;1.70;;;18.50;99.90;;;;;;5072040;28;20051;-56
2022/08/27 08:12:03;;;;;;;6.18;1.73;;;18.70;99.90;;;;;;5042877;28;20080;-53
2022/08/27 08:14:31;;;;;;;8.10;1.98;;;18.90;99.90;;;;;;5060359;28;20076;-57
2022/08/27 08:17:03;;;;;;;7.93;1.55;;;19.10;99.90;;;;;;5052275;28;20461;-55
2022/08/27 08:19:29;;;;;;;9.25;2.00;;;19.20;99.90;;;;;;5082597;22;20062;-61
2022/08/27 08:21:55;;;;;;;4.60;1.33;;;19.40;99.90;;;;;;5095500;27;20036;-60
2022/08/27 08:24:21;;;;;;;8.05;2.22;;;19.60;99.90;;;;;;5073502;28;20978;-68
2022/08/27 08:26:47;;;;;;;4.45;1.23;;;19.80;99.90;;;;;;5086091;28;20047;-69
2022/08/27 08:29:12;;;;;;;3.92;1.40;;;19.90;99.90;;;;;;5076868;28;20101;-64
2022/08/27 08:31:43;;;;;;;8.00;2.00;;;20.10;99.90;;;;;;5073957;28;20494;-64
2022/08/27 08:34:09;;;;;;;8.57;2.00;;;20.20;99.90;;;;;;5063965;28;20048;-61
2022/08/27 08:36:44;;;;;;;10.85;1.88;;;20.20;99.90;;;;;;5079950;28;20028;-61
2022/08/27 08:39:10;;;;;;;6.18;1.95;;;20.40;99.90;;;;;;5072832;28;20390;-61
2022/08/27 08:41:55;;;;;;;8.05;1.70;;;20.40;99.90;;;;;;5081945;28;20051;-63
2022/08/27 08:44:23;;;;;;;7.97;1.70;;;20.30;99.90;;;;;;5073604;28;20794;-62
2022/08/27 08:47:03;;;;;;;6.28;1.65;;;20.10;99.90;;;;;;5076395;28;20118;-64
2022/08/27 08:49:42;;;;;;;7.25;1.50;;;20.00;99.90;;;;;;5079065;28;20043;-60
2022/08/27 08:52:42;;;;;;;10.52;1.67;;;20.00;99.90;;;;;;5074368;28;20044;-60
2022/08/27 08:55:35;;;;;;;5.18;1.77;;;20.00;99.90;;;;;;5077430;28;20048;-62
2022/08/27 08:58:28;;;;;;;7.20;1.48;;;20.10;99.90;;;;;;5074033;28;20060;-63
2022/08/27 09:00:58;;;;;;;6.60;1.80;;;20.20;99.90;;;;;;5078337;28;20237;-61
2022/08/27 09:03:25;;;;;;;7.70;1.52;;;20.30;99.90;;;;;;5075709;28;20043;-62
2022/08/27 09:05:57;;;;;;;4.88;1.40;;;20.30;99.90;;;;;;5072921;28;20032;-62
2022/08/27 09:08:32;;;;;;;6.07;1.27;;;20.20;99.90;;;;;;5077272;28;20177;-63
2022/08/27 09:11:21;;;;;;;3.67;1.38;;;20.10;99.90;;;;;;5082881;28;20040;-63
2022/08/27 09:13:54;;;;;;;5.45;1.50;;;20.10;99.90;;;;;;5067612;28;20413;-63
2022/08/27 09:16:20;;;;;;;6.47;2.00;;;20.20;99.90;;;;;;5072280;28;20127;-63
2022/08/27 09:18:48;;;;;;;22.83;2.50;;;20.10;99.60;;;;;;5072182;28;20449;-64
2022/08/27 09:21:29;;;;;;;36.65;4.70;;;20.20;99.70;;;;;;5078671;28;20113;-60
2022/08/27 09:24:13;;;;;;;12.60;2.70;;;20.50;99.60;;;;;;5078599;28;20038;-61
2022/08/27 09:26:42;;;;;;;32.58;4.15;;;20.50;99.50;;;;;;5073966;28;20119;-62
2022/08/27 09:29:18;;;;;;;46.95;4.90;;;20.50;99.60;;;;;;5076624;28;20064;-71
2022/08/27 09:31:53;;;;;;;9.00;1.85;;;20.50;99.60;;;;;;5069827;28;20048;-62
2022/08/27 09:34:19;;;;;;;7.00;1.60;;;20.40;99.60;;;;;;5073622;28;20051;-62
2022/08/27 09:37:05;;;;;;;5.18;1.63;;;20.40;99.90;;;;;;5091191;28;20124;-63
2022/08/27 09:39:35;;;;;;;7.20;1.25;;;20.30;99.80;;;;;;5079191;28;20036;-63
2022/08/27 09:42:03;;;;;;;7.07;1.35;;;20.30;99.70;;;;;;5078286;28;20138;-60
2022/08/27 09:44:31;;;;;;;2.88;1.27;;;20.50;99.90;;;;;;5076627;28;20031;-64
2022/08/27 09:47:01;;;;;;;7.03;1.40;;;20.80;99.30;;;;;;5072913;28;20089;-64
2022/08/27 09:49:27;;;;;;;3.15;1.20;;;20.80;98.80;;;;;;5074224;28;20040;-65
2022/08/27 09:51:54;;;;;;;6.65;1.20;;;20.80;99.10;;;;;;5072159;28;20279;-64
2022/08/27 09:54:36;;;;;;;3.10;1.20;;;20.80;99.00;;;;;;5075802;28;20039;-64
2022/08/27 09:57:03;;;;;;;7.15;1.95;;;20.90;98.70;;;;;;5074720;28;20067;-65
2022/08/27 09:59:51;;;;;;;3.35;1.20;;;21.00;98.40;;;;;;5064078;28;20079;-63
2022/08/27 10:02:20;;;;;;;6.10;1.27;;;21.20;98.00;;;;;;5056592;28;20498;-62
2022/08/27 10:04:52;;;;;;;5.72;1.40;;;21.40;97.40;;;;;;5072555;28;21031;-62
2022/08/27 10:07:40;;;;;;;6.30;1.25;;;21.50;97.30;;;;;;5049207;28;20154;-62
2022/08/27 10:10:12;;;;;;;4.78;1.48;;;21.50;97.30;;;;;;5075540;28;20386;-62
2022/08/27 10:13:02;;;;;;;5.03;1.30;;;21.70;96.50;;;;;;5071439;28;20040;-63
2022/08/27 10:15:39;;;;;;;2.95;1.20;;;21.70;96.20;;;;;;5082714;28;20046;-63
2022/08/27 10:18:25;;;;;;;4.45;1.38;;;21.90;96.20;;;;;;5080530;28;20398;-63
2022/08/27 10:21:22;;;;;;;6.45;1.35;;;22.00;96.50;;;;;;5076185;28;20040;-64
2022/08/27 10:24:09;;;;;;;5.95;1.25;;;22.20;95.60;;;;;;5076529;28;20445;-64
2022/08/27 10:26:46;;;;;;;3.05;1.10;;;22.10;95.80;;;;;;5075161;28;20551;-63
2022/08/27 10:29:30;;;;;;;4.53;1.23;;;22.00;96.10;;;;;;5075322;28;20043;-62
2022/08/27 10:32:18;;;;;;;8.05;1.55;;;22.10;96.00;;;;;;5077855;28;20040;-63
2022/08/27 10:34:56;;;;;;;6.22;1.50;;;22.30;94.80;;;;;;5069040;28;20036;-62
2022/08/27 10:37:40;;;;;;;3.17;1.17;;;22.30;95.20;;;;;;5074828;28;20036;-62
2022/08/27 10:40:26;;;;;;;4.25;1.00;;;22.20;95.20;;;;;;5079495;28;20517;-62
2022/08/27 10:43:27;;;;;;;3.33;1.10;;;22.10;95.10;;;;;;5078768;28;20459;-60
2022/08/27 10:46:14;;;;;;;3.08;1.13;;;21.90;95.20;;;;;;5076438;28;20036;-63
2022/08/27 10:48:56;;;;;;;5.80;1.10;;;21.90;95.30;;;;;;5073447;28;20096;-62
2022/08/27 10:51:31;;;;;;;2.42;0.90;;;22.10;95.10;;;;;;5062515;28;20076;-62
2022/08/27 10:54:20;;;;;;;3.10;1.00;;;22.40;94.40;;;;;;5068098;28;20060;-62
2022/08/27 10:57:23;;;;;;;3.40;1.27;;;22.70;94.70;;;;;;5069510;28;20039;-63
2022/08/27 10:59:57;;;;;;;5.55;1.23;;;22.80;93.70;;;;;;5041593;28;20057;-64
2022/08/27 11:02:41;;;;;;;5.45;1.42;;;22.90;94.50;;;;;;5071780;28;20167;-64
2022/08/27 11:05:18;;;;;;;11.45;1.65;;;23.00;94.20;;;;;;5076500;28;20036;-62
2022/08/27 11:07:50;;;;;;;6.65;1.60;;;23.20;95.00;;;;;;5091285;28;20048;-62
2022/08/27 11:10:28;;;;;;;6.25;1.73;;;23.10;94.90;;;;;;5069590;28;20043;-63
2022/08/27 11:12:58;;;;;;;7.70;1.40;;;23.00;94.90;;;;;;5069036;28;20048;-63
2022/08/27 11:15:37;;;;;;;4.70;1.20;;;22.80;94.90;;;;;;5066721;28;20087;-64
2022/08/27 11:18:35;;;;;;;6.28;1.42;;;22.50;94.80;;;;;;5072936;28;20045;-63
2022/08/27 11:21:12;;;;;;;6.60;1.65;;;22.30;95.00;;;;;;5073379;28;20435;-65
2022/08/27 11:23:47;;;;;;;4.93;1.85;;;22.20;95.10;;;;;;5062890;28;20107;-63
2022/08/27 11:26:13;;;;;;;5.70;1.45;;;22.20;95.10;;;;;;5077407;28;20029;-62
2022/08/27 11:28:52;;;;;;;5.22;1.08;;;22.30;95.10;;;;;;5070808;28;20327;-64
2022/08/27 11:31:46;;;;;;;4.93;1.20;;;22.40;94.70;;;;;;5070139;28;20243;-63
2022/08/27 11:34:23;;;;;;;8.45;1.35;;;22.80;95.10;;;;;;5070137;28;20039;-63
2022/08/27 11:37:14;;;;;;;5.35;1.38;;;23.00;94.20;;;;;;5079945;28;20043;-64
2022/08/27 11:39:46;;;;;;;3.65;1.38;;;22.90;93.70;;;;;;5071483;28;20225;-70
2022/08/27 11:42:35;;;;;;;3.80;1.73;;;23.10;93.90;;;;;;5074120;28;20117;-64
2022/08/27 11:45:28;;;;;;;4.95;1.52;;;23.20;93.70;;;;;;5083110;28;20046;-63
2022/08/27 11:48:00;;;;;;;9.23;1.63;;;23.40;93.50;;;;;;5079480;28;20101;-63
2022/08/27 11:50:29;;;;;;;5.15;1.23;;;23.40;93.20;;;;;;5076679;28;20040;-64
2022/08/27 11:53:01;;;;;;;6.57;1.17;;;23.20;93.10;;;;;;5064424;28;20069;-63
2022/08/27 11:55:29;;;;;;;6.10;1.50;;;23.20;93.20;;;;;;5078859;28;20036;-64
2022/08/27 11:58:25;;;;;;;3.65;1.00;;;23.20;91.90;;;;;;5077253;28;20040;-64
2022/08/27 12:00:52;;;;;;;5.43;1.30;;;23.20;92.60;;;;;;5082999;28;20492;-65
2022/08/27 12:03:18;;;;;;;7.85;1.30;;;23.30;93.20;;;;;;5078677;28;20039;-63
2022/08/27 12:05:48;;;;;;;4.28;1.30;;;23.20;92.90;;;;;;5072853;28;20054;-64
2022/08/27 12:08:26;;;;;;;7.50;1.10;;;23.00;93.00;;;;;;5076325;28;20375;-63
2022/08/27 12:11:10;;;;;;;7.50;1.20;;;22.80;92.60;;;;;;5067859;28;20054;-64
2022/08/27 12:13:54;;;;;;;6.72;1.42;;;22.90;92.90;;;;;;5070390;28;20051;-64
2022/08/27 12:16:24;;;;;;;5.30;1.05;;;23.10;92.40;;;;;;5070197;28;20080;-64
2022/08/27 12:19:08;;;;;;;4.25;1.08;;;23.40;92.80;;;;;;5074392;28;20131;-64
2022/08/27 12:21:39;;;;;;;;;;;23.60;92.30;;;;;;5073929;28;20425;-64
2022/08/27 12:24:27;;;;;;;3.67;0.98;;;23.50;90.20;;;;;;5074138;28;19916;-64
2022/08/27 12:27:13;;;;;;;4.53;1.40;;;23.70;91.40;;;;;;5062367;28;20043;-63
2022/08/27 12:29:56;;;;;;;5.53;1.30;;;23.80;91.30;;;;;;5087659;28;20040;-64
2022/08/27 12:32:35;;;;;;;7.47;1.63;;;23.90;91.00;;;;;;5077587;28;20549;-63
2022/08/27 12:35:09;;;;;;;4.03;1.30;;;24.00;91.10;;;;;;5079761;28;20972;-64
2022/08/27 12:37:47;;;;;;;5.22;1.45;;;23.70;91.20;;;;;;5078305;28;20032;-63
2022/08/27 12:40:22;;;;;;;7.53;1.77;;;23.40;91.50;;;;;;5079746;28;20095;-62
2022/08/27 12:42:48;;;;;;;9.43;1.83;;;23.20;91.40;;;;;;5079926;28;20043;-63
2022/08/27 12:45:20;;;;;;;5.10;1.50;;;23.10;91.70;;;;;;5076041;28;20080;-61
2022/08/27 12:47:47;;;;;;;7.20;1.60;;;23.30;91.70;;;;;;5076250;28;20048;-63
2022/08/27 12:50:19;;;;;;;11.27;1.98;;;23.60;91.30;;;;;;5077195;28;20036;-63
2022/08/27 12:53:07;;;;;;;6.35;1.70;;;23.70;90.90;;;;;;5081522;28;20048;-65
2022/08/27 12:55:42;;;;;;;3.42;1.70;;;23.70;90.90;;;;;;5072377;28;20457;-62
2022/08/27 12:58:35;;;;;;;5.90;2.25;;;24.00;91.70;;;;;;5079895;28;20054;-63
2022/08/27 13:01:33;;;;;;;6.85;1.60;;;23.80;90.90;;;;;;5080719;28;20047;-68
2022/08/27 13:03:59;;;;;;;7.00;2.40;;;23.60;90.80;;;;;;5068345;28;20044;-63
2022/08/27 13:06:31;;;;;;;5.07;2.22;;;23.20;91.00;;;;;;5075486;28;20119;-68
2022/08/27 13:09:00;;;;;;;5.40;1.77;;;23.30;91.20;;;;;;5075276;28;20525;-64
2022/08/27 13:11:29;;;;;;;6.03;2.05;;;23.30;90.60;;;;;;5078044;28;20047;-63
2022/08/27 13:14:08;;;;;;;3.30;1.38;;;23.10;90.70;;;;;;5072124;28;20075;-64
2022/08/27 13:16:36;;;;;;;7.57;2.28;;;23.10;91.00;;;;;;5073785;28;20028;-62
2022/08/27 13:19:05;;;;;;;7.20;2.00;;;22.90;91.50;;;;;;5069906;28;20033;-64
2022/08/27 13:21:34;;;;;;;5.93;1.75;;;22.80;91.80;;;;;;5071339;28;20515;-65